Time,TemperatureF,DewpointF,PressureIn,WindDirection,WindDirectionDegrees,WindSpeedMPH,WindSpeedGustMPH,Humidity,HourlyPrecipIn,Conditions,Clouds,dailyrainin,SoftwareType,DateUTC
2013-02-20 00:06:00,32.2,21.8,29.77,South,172,0.0,0.0,65,0.00,,---,0.00,VWS V14.01,2013-02-20 08:06:00,
2013-02-20 00:12:00,32.2,21.8,29.77,South,172,0.0,0.0,65,0.00,,---,0.00,VWS V14.01,2013-02-20 08:12:00,
2013-02-20 00:18:00,32.2,21.8,29.77,South,172,0.0,0.0,65,0.00,,---,0.00,VWS V14.01,2013-02-20 08:18:00,
2013-02-20 00:24:00,32.4,21.9,29.77,South,172,0.0,0.0,65,0.00,,---,0.00,VWS V14.01,2013-02-20 08:24:00,
2013-02-20 00:30:00,32.4,22.3,29.77,South,172,0.0,0.0,66,0.00,,---,0.00,VWS V14.01,2013-02-20 08:30:00,
2013-02-20 00:36:00,32.4,21.9,29.77,South,172,0.0,0.0,65,0.00,,---,0.00,VWS V14.01,2013-02-20 08:36:00,
2013-02-20 00:42:00,32.4,21.9,29.77,South,172,0.0,0.0,65,0.00,,---,0.00,VWS V14.01,2013-02-20 08:42:00,
2013-02-20 00:48:00,32.4,21.9,29.77,South,172,0.0,0.0,65,0.00,,---,0.00,VWS V14.01,2013-02-20 08:48:00,
2013-02-20 00:54:00,32.2,21.8,29.77,South,172,0.0,0.0,65,0.00,,---,0.00,VWS V14.01,2013-02-20 08:54:00,
2013-02-20 01:00:00,32.4,21.9,29.77,South,172,0.0,0.0,65,0.00,,---,0.00,VWS V14.01,2013-02-20 09:00:00,
2013-02-20 01:06:00,32.2,21.8,29.77,South,172,0.0,0.0,65,0.00,,---,0.00,VWS V14.01,2013-02-20 09:06:00,
2013-02-20 01:12:00,32.2,21.8,29.77,South,172,0.0,0.0,65,0.00,,---,0.00,VWS V14.01,2013-02-20 09:12:00,
2013-02-20 01:18:00,32.2,21.8,29.77,South,172,0.0,0.0,65,0.00,,---,0.00,VWS V14.01,2013-02-20 09:18:00,
2013-02-20 01:24:00,32.2,21.8,29.77,South,172,0.0,0.0,65,0.00,,---,0.00,VWS V14.01,2013-02-20 09:24:00,
2013-02-20 01:30:00,31.8,21.4,29.77,South,172,0.0,0.0,65,0.00,,---,0.00,VWS V14.01,2013-02-20 09:30:00,
2013-02-20 01:36:00,31.6,21.2,29.77,South,172,0.0,0.0,65,0.00,,---,0.00,VWS V14.01,2013-02-20 09:36:00,
2013-02-20 01:42:00,31.6,21.2,29.77,South,172,0.0,0.0,65,0.00,,---,0.00,VWS V14.01,2013-02-20 09:42:00,
2013-02-20 01:48:00,31.5,21.1,29.77,South,172,0.0,0.0,65,0.00,,---,0.00,VWS V14.01,2013-02-20 09:48:00,
2013-02-20 01:54:00,31.5,21.1,29.77,South,172,0.0,0.0,65,0.00,,---,0.00,VWS V14.01,2013-02-20 09:54:00,
2013-02-20 02:00:00,31.5,21.1,29.77,South,172,0.0,0.0,65,0.00,,---,0.00,VWS V14.01,2013-02-20 10:00:00,
2013-02-20 02:06:00,31.3,20.9,29.77,South,172,0.0,0.0,65,0.00,,---,0.00,VWS V14.01,2013-02-20 10:06:00,
2013-02-20 02:12:00,31.1,20.7,29.77,South,172,0.0,0.0,65,0.00,,---,0.00,VWS V14.01,2013-02-20 10:12:00,
2013-02-20 02:18:00,30.9,20.5,29.77,South,172,0.0,0.0,65,0.00,,---,0.00,VWS V14.01,2013-02-20 10:18:00,
2013-02-20 02:24:00,30.9,20.5,29.77,South,172,0.0,0.0,65,0.00,,---,0.00,VWS V14.01,2013-02-20 10:24:00,
2013-02-20 02:30:00,30.9,20.5,29.77,South,172,0.0,0.0,65,0.00,,---,0.00,VWS V14.01,2013-02-20 10:30:00,
2013-02-20 02:36:00,30.7,20.4,29.77,South,172,0.0,0.0,65,0.00,,---,0.00,VWS V14.01,2013-02-20 10:36:00,
2013-02-20 02:42:00,30.7,20.4,29.77,South,172,0.0,0.0,65,0.00,,---,0.00,VWS V14.01,2013-02-20 10:42:00,
2013-02-20 02:48:00,30.7,20.4,29.77,South,172,0.0,0.0,65,0.00,,---,0.00,VWS V14.01,2013-02-20 10:48:00,
2013-02-20 02:54:00,30.6,20.2,29.77,South,172,0.0,0.0,65,0.00,,---,0.00,VWS V14.01,2013-02-20 10:54:00,
2013-02-20 03:00:00,30.6,20.2,29.77,South,172,0.0,0.0,65,0.00,,---,0.00,VWS V14.01,2013-02-20 11:00:00,
2013-02-20 03:06:00,30.7,20.4,29.80,South,172,0.0,0.0,65,0.00,,---,0.00,VWS V14.01,2013-02-20 11:06:00,
2013-02-20 03:12:00,30.6,20.2,29.80,South,172,0.0,0.0,65,0.00,,---,0.00,VWS V14.01,2013-02-20 11:12:00,
2013-02-20 03:18:00,30.9,20.9,29.80,South,172,0.0,0.0,66,0.00,,---,0.00,VWS V14.01,2013-02-20 11:18:00,
2013-02-20 03:24:00,31.1,21.1,29.80,South,172,0.0,0.0,66,0.00,,---,0.00,VWS V14.01,2013-02-20 11:24:00,
2013-02-20 03:30:00,31.3,21.6,29.80,South,172,0.0,0.0,67,0.00,,---,0.00,VWS V14.01,2013-02-20 11:30:00,
2013-02-20 03:36:00,31.8,22.5,29.80,South,172,0.0,0.0,68,0.00,,---,0.00,VWS V14.01,2013-02-20 11:36:00,
2013-02-20 03:42:00,32.0,22.6,29.80,South,172,0.0,0.0,68,0.00,,---,0.00,VWS V14.01,2013-02-20 11:42:00,
2013-02-20 03:48:00,31.8,22.5,29.80,South,172,0.0,0.0,68,0.00,,---,0.00,VWS V14.01,2013-02-20 11:48:00,
2013-02-20 03:54:00,31.8,22.5,29.80,South,172,0.0,0.0,68,0.00,,---,0.00,VWS V14.01,2013-02-20 11:54:00,
2013-02-20 04:00:00,32.0,23.0,29.80,South,172,0.0,0.0,69,0.00,,---,0.00,VWS V14.01,2013-02-20 12:00:00,
2013-02-20 04:06:00,31.8,22.8,29.80,South,172,0.0,0.0,69,0.00,,---,0.00,VWS V14.01,2013-02-20 12:06:00,
2013-02-20 04:12:00,31.5,22.1,29.80,South,172,0.0,0.0,68,0.00,,---,0.00,VWS V14.01,2013-02-20 12:12:00,
2013-02-20 04:18:00,31.5,22.1,29.80,South,172,0.0,0.0,68,0.00,,---,0.00,VWS V14.01,2013-02-20 12:18:00,
2013-02-20 04:24:00,31.5,22.1,29.80,South,172,0.0,0.0,68,0.00,,---,0.00,VWS V14.01,2013-02-20 12:24:00,
2013-02-20 04:30:00,31.6,22.6,29.80,South,172,0.0,0.0,69,0.00,,---,0.00,VWS V14.01,2013-02-20 12:30:00,
2013-02-20 04:36:00,31.8,22.8,29.80,South,172,0.0,0.0,69,0.00,,---,0.00,VWS V14.01,2013-02-20 12:36:00,
2013-02-20 04:42:00,32.0,23.0,29.80,South,172,0.0,0.0,69,0.00,,---,0.00,VWS V14.01,2013-02-20 12:42:00,
2013-02-20 04:48:00,32.2,23.5,29.80,South,172,0.0,0.0,70,0.00,,---,0.00,VWS V14.01,2013-02-20 12:48:00,
2013-02-20 04:54:00,32.0,23.0,29.80,South,172,0.0,0.0,69,0.00,,---,0.00,VWS V14.01,2013-02-20 12:54:00,
2013-02-20 05:00:00,32.0,23.0,29.80,South,172,0.0,0.0,69,0.00,,---,0.00,VWS V14.01,2013-02-20 13:00:00,
2013-02-20 05:06:00,32.0,23.0,29.80,South,172,0.0,0.0,69,0.00,,---,0.00,VWS V14.01,2013-02-20 13:06:00,
2013-02-20 05:12:00,32.2,23.5,29.80,South,172,0.0,0.0,70,0.00,,---,0.00,VWS V14.01,2013-02-20 13:12:00,
2013-02-20 05:18:00,32.4,23.7,29.80,South,172,0.0,0.0,70,0.00,,---,0.00,VWS V14.01,2013-02-20 13:18:00,
2013-02-20 05:24:00,32.5,23.9,29.80,South,172,0.0,0.0,70,0.00,,---,0.00,VWS V14.01,2013-02-20 13:24:00,
2013-02-20 05:30:00,32.5,23.9,29.80,South,172,0.0,0.0,70,0.00,,---,0.00,VWS V14.01,2013-02-20 13:30:00,
2013-02-20 05:36:00,32.7,24.0,29.80,South,172,0.0,0.0,70,0.00,,---,0.00,VWS V14.01,2013-02-20 13:36:00,
2013-02-20 05:42:00,32.7,24.0,29.80,South,172,0.0,0.0,70,0.00,,---,0.00,VWS V14.01,2013-02-20 13:42:00,
2013-02-20 05:48:00,32.7,24.0,29.80,South,172,0.0,0.0,70,0.00,,---,0.00,VWS V14.01,2013-02-20 13:48:00,
2013-02-20 05:54:00,32.7,24.0,29.80,South,172,0.0,0.0,70,0.00,,---,0.00,VWS V14.01,2013-02-20 13:54:00,
2013-02-20 06:00:00,32.7,23.7,29.80,South,172,0.0,0.0,69,0.00,,---,0.00,VWS V14.01,2013-02-20 14:00:00,
2013-02-20 06:06:00,32.7,23.7,29.80,South,172,0.0,0.0,69,0.00,,---,0.00,VWS V14.01,2013-02-20 14:06:00,
2013-02-20 06:12:00,32.7,23.7,29.80,South,172,0.0,0.0,69,0.00,,---,0.00,VWS V14.01,2013-02-20 14:12:00,
2013-02-20 06:18:00,32.7,23.7,29.80,South,172,0.0,0.0,69,0.00,,---,0.00,VWS V14.01,2013-02-20 14:18:00,
2013-02-20 06:24:00,32.7,24.0,29.80,South,172,0.0,0.0,70,0.00,,---,0.00,VWS V14.01,2013-02-20 14:24:00,
2013-02-20 06:30:00,32.9,24.2,29.80,South,172,0.0,0.0,70,0.00,,---,0.00,VWS V14.01,2013-02-20 14:30:00,
2013-02-20 06:36:00,32.9,24.2,29.80,South,172,0.0,0.0,70,0.00,,---,0.00,VWS V14.01,2013-02-20 14:36:00,
2013-02-20 06:42:00,33.1,24.4,29.80,South,172,0.0,0.0,70,0.00,,---,0.00,VWS V14.01,2013-02-20 14:42:00,
2013-02-20 06:48:00,32.9,24.2,29.80,South,172,0.0,0.0,70,0.00,,---,0.00,VWS V14.01,2013-02-20 14:48:00,
2013-02-20 06:54:00,32.9,24.2,29.80,South,172,0.0,0.0,70,0.00,,---,0.00,VWS V14.01,2013-02-20 14:54:00,
2013-02-20 07:00:00,33.1,24.4,29.80,South,172,0.0,0.0,70,0.00,,---,0.00,VWS V14.01,2013-02-20 15:00:00,
2013-02-20 07:06:00,33.1,24.4,29.80,South,172,0.0,0.0,70,0.00,,---,0.00,VWS V14.01,2013-02-20 15:06:00,
2013-02-20 07:12:00,33.1,24.4,29.80,South,172,0.0,0.0,70,0.00,,---,0.00,VWS V14.01,2013-02-20 15:12:00,
2013-02-20 07:18:00,33.1,24.7,29.80,South,172,0.0,0.0,71,0.00,,---,0.00,VWS V14.01,2013-02-20 15:18:00,
2013-02-20 07:24:00,33.3,24.9,29.80,South,172,0.0,0.0,71,0.00,,---,0.00,VWS V14.01,2013-02-20 15:24:00,
2013-02-20 07:30:00,33.4,25.1,29.80,South,172,0.0,0.0,71,0.00,,---,0.00,VWS V14.01,2013-02-20 15:30:00,
2013-02-20 07:36:00,33.4,25.1,29.80,South,172,0.0,0.0,71,0.00,,---,0.00,VWS V14.01,2013-02-20 15:36:00,
2013-02-20 07:42:00,33.6,25.6,29.80,South,172,0.0,0.0,72,0.00,,---,0.00,VWS V14.01,2013-02-20 15:42:00,
2013-02-20 07:48:00,33.6,25.2,29.80,South,172,0.0,0.0,71,0.00,,---,0.00,VWS V14.01,2013-02-20 15:48:00,
2013-02-20 07:54:00,33.8,25.4,29.80,South,172,0.0,0.0,71,0.00,,---,0.00,VWS V14.01,2013-02-20 15:54:00,
2013-02-20 08:00:00,33.8,25.4,29.80,South,172,0.0,0.0,71,0.00,,---,0.00,VWS V14.01,2013-02-20 16:00:00,
2013-02-20 08:06:00,34.0,25.6,29.77,South,172,0.0,0.0,71,0.00,,---,0.00,VWS V14.01,2013-02-20 16:06:00,
2013-02-20 08:12:00,34.2,25.8,29.77,South,172,0.0,0.0,71,0.00,,---,0.00,VWS V14.01,2013-02-20 16:12:00,
2013-02-20 08:18:00,34.3,25.6,29.77,South,172,0.0,0.0,70,0.00,,---,0.00,VWS V14.01,2013-02-20 16:18:00,
2013-02-20 08:24:00,34.5,25.8,29.77,South,172,0.0,0.0,70,0.00,,---,0.00,VWS V14.01,2013-02-20 16:24:00,
2013-02-20 08:30:00,34.7,26.3,29.77,South,172,0.0,0.0,71,0.00,,---,0.00,VWS V14.01,2013-02-20 16:30:00,
2013-02-20 08:36:00,34.9,26.1,29.77,South,172,0.0,0.0,70,0.00,,---,0.00,VWS V14.01,2013-02-20 16:36:00,
2013-02-20 08:42:00,35.1,26.6,29.77,South,172,0.0,0.0,71,0.00,,---,0.00,VWS V14.01,2013-02-20 16:42:00,
2013-02-20 08:48:00,35.2,26.8,29.77,South,172,0.0,0.0,71,0.00,,---,0.00,VWS V14.01,2013-02-20 16:48:00,
2013-02-20 08:54:00,35.4,26.6,29.80,South,172,0.0,0.0,70,0.00,,---,0.00,VWS V14.01,2013-02-20 16:54:00,
2013-02-20 09:00:00,35.6,26.8,29.80,South,172,0.0,0.0,70,0.00,,---,0.00,VWS V14.01,2013-02-20 17:00:00,
2013-02-20 09:06:00,35.8,27.0,29.80,South,172,0.0,0.0,70,0.00,,---,0.00,VWS V14.01,2013-02-20 17:06:00,
2013-02-20 09:12:00,36.1,27.3,29.80,South,172,0.0,0.0,70,0.00,,---,0.00,VWS V14.01,2013-02-20 17:12:00,
2013-02-20 09:18:00,36.3,27.5,29.80,South,172,0.0,0.0,70,0.00,,---,0.00,VWS V14.01,2013-02-20 17:18:00,
2013-02-20 09:24:00,36.7,27.8,29.80,South,172,0.0,0.0,70,0.00,,---,0.00,VWS V14.01,2013-02-20 17:24:00,
2013-02-20 09:30:00,36.9,28.0,29.80,South,172,0.0,0.0,70,0.00,,---,0.00,VWS V14.01,2013-02-20 17:30:00,
2013-02-20 09:36:00,37.0,28.2,29.80,South,172,0.0,0.0,70,0.00,,---,0.00,VWS V14.01,2013-02-20 17:36:00,
2013-02-20 09:42:00,37.4,28.2,29.80,South,172,0.0,0.0,69,0.00,,---,0.00,VWS V14.01,2013-02-20 17:42:00,
2013-02-20 09:48:00,37.6,28.4,29.80,South,172,0.0,0.0,69,0.00,,---,0.00,VWS V14.01,2013-02-20 17:48:00,
2013-02-20 09:54:00,37.9,28.7,29.80,South,172,0.0,0.0,69,0.00,,---,0.00,VWS V14.01,2013-02-20 17:54:00,
2013-02-20 10:00:00,38.3,28.7,29.80,South,172,0.0,0.0,68,0.00,,---,0.00,VWS V14.01,2013-02-20 18:00:00,
2013-02-20 10:07:00,38.5,28.1,29.80,South,172,0.0,0.0,66,0.00,,---,0.00,VWS V14.01,2013-02-20 18:07:00,
2013-02-20 10:12:00,38.7,27.9,29.80,South,172,0.0,0.0,65,0.00,,---,0.00,VWS V14.01,2013-02-20 18:12:00,
2013-02-20 10:18:00,38.8,27.0,29.80,South,172,0.0,0.0,62,0.00,,---,0.00,VWS V14.01,2013-02-20 18:18:00,
2013-02-20 10:24:00,38.8,25.8,29.80,South,172,0.0,0.0,59,0.00,,---,0.00,VWS V14.01,2013-02-20 18:24:00,
2013-02-20 10:30:00,39.2,24.8,29.80,South,172,0.0,0.0,56,0.00,,---,0.00,VWS V14.01,2013-02-20 18:30:00,
2013-02-20 10:36:00,39.6,24.3,29.80,South,172,0.0,0.0,54,0.00,,---,0.00,VWS V14.01,2013-02-20 18:36:00,
2013-02-20 10:44:00,40.1,24.8,29.80,South,172,0.0,0.0,54,0.00,,---,0.00,VWS V14.01,2013-02-20 18:44:00,
2013-02-20 10:50:00,40.5,24.2,29.80,South,172,0.0,0.0,52,0.00,,---,0.00,VWS V14.01,2013-02-20 18:50:00,
2013-02-20 10:56:00,41.0,24.7,29.80,South,172,0.0,0.0,52,0.00,,---,0.00,VWS V14.01,2013-02-20 18:56:00,
2013-02-20 11:02:00,41.4,23.2,29.80,South,172,0.0,0.0,48,0.00,,---,0.00,VWS V14.01,2013-02-20 19:02:00,
2013-02-20 11:08:00,41.7,24.5,29.80,South,172,0.0,0.0,50,0.00,,---,0.00,VWS V14.01,2013-02-20 19:08:00,
2013-02-20 11:14:00,41.9,24.1,29.80,South,172,0.0,0.0,49,0.00,,---,0.00,VWS V14.01,2013-02-20 19:14:00,
2013-02-20 11:20:00,41.7,24.0,29.80,South,172,0.0,0.0,49,0.00,,---,0.00,VWS V14.01,2013-02-20 19:20:00,
2013-02-20 11:26:00,41.5,24.3,29.80,South,172,0.0,0.0,50,0.00,,---,0.00,VWS V14.01,2013-02-20 19:26:00,
2013-02-20 11:32:00,41.5,24.3,29.80,South,172,0.0,0.0,50,0.00,,---,0.00,VWS V14.01,2013-02-20 19:32:00,
2013-02-20 11:38:00,41.4,23.2,29.80,South,172,0.0,0.0,48,0.00,,---,0.00,VWS V14.01,2013-02-20 19:38:00,
2013-02-20 11:44:00,41.4,22.7,29.80,South,172,0.0,0.0,47,0.00,,---,0.00,VWS V14.01,2013-02-20 19:44:00,
2013-02-20 11:50:00,41.4,23.2,29.80,South,172,0.0,0.0,48,0.00,,---,0.00,VWS V14.01,2013-02-20 19:50:00,
2013-02-20 11:56:00,41.5,23.8,29.80,South,172,0.0,0.0,49,0.00,,---,0.00,VWS V14.01,2013-02-20 19:56:00,
2013-02-20 12:02:00,41.7,23.5,29.80,South,172,0.0,0.0,48,0.00,,---,0.00,VWS V14.01,2013-02-20 20:02:00,
2013-02-20 12:08:00,41.7,20.3,29.80,South,172,0.0,0.0,42,0.00,,---,0.00,VWS V14.01,2013-02-20 20:08:00,
2013-02-20 12:14:00,41.7,20.3,29.80,North,357,3.6,3.6,42,0.00,,---,0.00,VWS V14.01,2013-02-20 20:14:00,
2013-02-20 12:20:00,42.4,21.0,29.80,North,357,0.0,0.0,42,0.00,,---,0.00,VWS V14.01,2013-02-20 20:20:00,
2013-02-20 12:26:00,43.0,20.9,29.80,ENE,66,3.1,3.1,41,0.00,,---,0.00,VWS V14.01,2013-02-20 20:26:00,
2013-02-20 12:32:00,43.2,21.6,29.80,WNW,294,0.0,3.1,42,0.00,,---,0.00,VWS V14.01,2013-02-20 20:32:00,
2013-02-20 12:38:00,43.7,22.7,29.77,WNW,294,0.0,0.0,43,0.00,,---,0.00,VWS V14.01,2013-02-20 20:38:00,
2013-02-20 12:44:00,44.1,21.9,29.77,SE,126,0.0,3.1,41,0.00,,---,0.00,VWS V14.01,2013-02-20 20:44:00,
2013-02-20 12:50:00,44.1,21.3,29.77,SSE,162,0.0,2.2,40,0.00,,---,0.00,VWS V14.01,2013-02-20 20:50:00,
2013-02-20 12:56:00,44.2,23.2,29.77,North,357,3.1,3.1,43,0.00,,---,0.00,VWS V14.01,2013-02-20 20:56:00,
2013-02-20 13:02:00,44.1,21.3,29.77,WSW,253,0.0,0.0,40,0.00,,---,0.00,VWS V14.01,2013-02-20 21:02:00,
2013-02-20 13:09:00,43.9,21.1,29.77,ENE,75,0.0,3.6,40,0.00,,---,0.00,VWS V14.01,2013-02-20 21:09:00,
2013-02-20 13:14:00,43.5,21.4,29.77,NE,35,0.0,0.0,41,0.00,,---,0.00,VWS V14.01,2013-02-20 21:14:00,
2013-02-20 13:20:00,43.3,21.8,29.77,NE,35,0.0,0.0,42,0.00,,---,0.00,VWS V14.01,2013-02-20 21:20:00,
2013-02-20 13:26:00,43.2,23.3,29.77,NE,35,0.0,0.0,45,0.00,,---,0.00,VWS V14.01,2013-02-20 21:26:00,
2013-02-20 13:32:00,43.2,24.8,29.77,NE,35,0.0,0.0,48,0.00,,---,0.00,VWS V14.01,2013-02-20 21:32:00,
2013-02-20 13:38:00,43.3,25.5,29.77,East,80,0.0,0.0,49,0.00,,---,0.00,VWS V14.01,2013-02-20 21:38:00,
2013-02-20 13:44:00,43.3,24.5,29.77,NE,56,0.0,0.0,47,0.00,,---,0.00,VWS V14.01,2013-02-20 21:44:00,
2013-02-20 13:51:00,43.5,25.1,29.77,ENE,57,0.0,0.0,48,0.00,,---,0.00,VWS V14.01,2013-02-20 21:51:00,
2013-02-20 13:56:00,44.1,25.1,29.77,ENE,57,0.0,0.0,47,0.00,,---,0.00,VWS V14.01,2013-02-20 21:56:00,
2013-02-20 14:02:00,44.1,25.6,29.77,ENE,57,0.0,0.0,48,0.00,,---,0.00,VWS V14.01,2013-02-20 22:02:00,
2013-02-20 14:08:00,44.2,23.7,29.77,NE,56,0.0,0.0,44,0.00,,---,0.00,VWS V14.01,2013-02-20 22:08:00,
2013-02-20 14:15:00,44.1,24.1,29.77,NE,56,0.0,0.0,45,0.00,,---,0.00,VWS V14.01,2013-02-20 22:15:00,
2013-02-20 14:20:00,43.9,24.5,29.77,NE,56,0.0,0.0,46,0.00,,---,0.00,VWS V14.01,2013-02-20 22:20:00,
2013-02-20 14:26:00,43.7,25.3,29.77,NE,42,0.0,3.1,48,0.00,,---,0.00,VWS V14.01,2013-02-20 22:26:00,
2013-02-20 14:32:00,43.7,26.3,29.77,NE,42,0.0,0.0,50,0.00,,---,0.00,VWS V14.01,2013-02-20 22:32:00,
2013-02-20 14:38:00,43.5,26.1,29.74,NE,43,0.0,0.0,50,0.00,,---,0.00,VWS V14.01,2013-02-20 22:38:00,
2013-02-20 14:44:00,43.5,26.6,29.74,NE,42,0.0,0.0,51,0.00,,---,0.00,VWS V14.01,2013-02-20 22:44:00,
2013-02-20 14:50:00,43.5,26.6,29.74,NE,43,0.0,0.0,51,0.00,,---,0.00,VWS V14.01,2013-02-20 22:50:00,
2013-02-20 14:56:00,43.3,26.4,29.74,NE,43,0.0,0.0,51,0.00,,---,0.00,VWS V14.01,2013-02-20 22:56:00,
2013-02-20 15:02:00,43.5,26.6,29.74,NE,43,0.0,0.0,51,0.00,,---,0.00,VWS V14.01,2013-02-20 23:02:00,
2013-02-20 15:08:00,43.5,26.1,29.74,NE,43,0.0,0.0,50,0.00,,---,0.00,VWS V14.01,2013-02-20 23:08:00,
2013-02-20 15:14:00,43.5,25.6,29.74,NE,43,0.0,0.0,49,0.00,,---,0.00,VWS V14.01,2013-02-20 23:14:00,
2013-02-20 15:20:00,43.7,26.3,29.74,NE,43,0.0,0.0,50,0.00,,---,0.00,VWS V14.01,2013-02-20 23:20:00,
2013-02-20 15:26:00,43.5,25.6,29.74,NE,43,0.0,0.0,49,0.00,,---,0.00,VWS V14.01,2013-02-20 23:26:00,
2013-02-20 15:32:00,43.5,25.6,29.74,NE,43,0.0,0.0,49,0.00,,---,0.00,VWS V14.01,2013-02-20 23:32:00,
2013-02-20 15:38:00,43.7,26.3,29.74,NE,43,0.0,0.0,50,0.00,,---,0.00,VWS V14.01,2013-02-20 23:38:00,
2013-02-20 15:44:00,43.5,26.1,29.74,NE,43,0.0,0.0,50,0.00,,---,0.00,VWS V14.01,2013-02-20 23:44:00,
2013-02-20 15:50:00,43.5,26.1,29.74,NE,43,0.0,0.0,50,0.00,,---,0.00,VWS V14.01,2013-02-20 23:50:00,
2013-02-20 15:57:00,43.3,26.4,29.74,NE,43,0.0,0.0,51,0.00,,---,0.00,VWS V14.01,2013-02-20 23:57:00,
2013-02-20 16:02:00,43.5,27.1,29.74,NE,43,0.0,0.0,52,0.00,,---,0.00,VWS V14.01,2013-02-21 00:02:00,
2013-02-20 16:08:00,43.3,26.9,29.74,NE,43,0.0,0.0,52,0.00,,---,0.00,VWS V14.01,2013-02-21 00:08:00,
2013-02-20 16:14:00,43.3,27.4,29.74,NE,43,0.0,0.0,53,0.00,,---,0.00,VWS V14.01,2013-02-21 00:14:00,
2013-02-20 16:21:00,43.2,27.2,29.74,NE,43,0.0,0.0,53,0.00,,---,0.00,VWS V14.01,2013-02-21 00:21:00,
2013-02-20 16:26:00,43.0,27.5,29.74,NE,43,0.0,0.0,54,0.00,,---,0.00,VWS V14.01,2013-02-21 00:26:00,
2013-02-20 16:32:00,42.6,28.0,29.74,NE,43,0.0,0.0,56,0.00,,---,0.00,VWS V14.01,2013-02-21 00:32:00,
2013-02-20 16:38:00,42.4,27.9,29.77,NE,43,0.0,0.0,56,0.00,,---,0.00,VWS V14.01,2013-02-21 00:38:00,
2013-02-20 16:44:00,42.3,28.1,29.77,NE,43,0.0,0.0,57,0.00,,---,0.00,VWS V14.01,2013-02-21 00:44:00,
2013-02-20 16:50:00,42.1,28.8,29.77,NE,43,0.0,0.0,59,0.00,,---,0.00,VWS V14.01,2013-02-21 00:50:00,
2013-02-20 16:56:00,41.9,29.0,29.77,NE,43,0.0,0.0,60,0.00,,---,0.00,VWS V14.01,2013-02-21 00:56:00,
2013-02-20 17:02:00,41.7,28.9,29.77,NE,43,0.0,0.0,60,0.00,,---,0.00,VWS V14.01,2013-02-21 01:02:00,
2013-02-20 17:08:00,41.7,29.7,29.77,NE,43,0.0,0.0,62,0.00,,---,0.00,VWS V14.01,2013-02-21 01:08:00,
2013-02-20 17:14:00,41.7,30.1,29.77,NE,43,0.0,0.0,63,0.00,,---,0.00,VWS V14.01,2013-02-21 01:14:00,
2013-02-20 17:20:00,41.5,29.9,29.77,NE,43,0.0,0.0,63,0.00,,---,0.00,VWS V14.01,2013-02-21 01:20:00,
2013-02-20 17:26:00,41.5,30.3,29.77,NE,43,0.0,0.0,64,0.00,,---,0.00,VWS V14.01,2013-02-21 01:26:00,
2013-02-20 17:32:00,41.4,30.1,29.77,NE,43,0.0,0.0,64,0.00,,---,0.00,VWS V14.01,2013-02-21 01:32:00,
2013-02-20 17:38:00,41.4,30.5,29.77,NE,43,0.0,0.0,65,0.00,,---,0.00,VWS V14.01,2013-02-21 01:38:00,
2013-02-20 17:44:00,41.2,30.3,29.77,NE,43,0.0,0.0,65,0.00,,---,0.00,VWS V14.01,2013-02-21 01:44:00,
2013-02-20 17:50:00,41.0,30.1,29.77,NE,43,0.0,0.0,65,0.00,,---,0.00,VWS V14.01,2013-02-21 01:50:00,
2013-02-20 17:56:00,41.0,30.5,29.77,NE,43,0.0,0.0,66,0.00,,---,0.00,VWS V14.01,2013-02-21 01:56:00,
2013-02-20 18:02:00,41.0,30.5,29.77,NE,43,0.0,0.0,66,0.00,,---,0.00,VWS V14.01,2013-02-21 02:02:00,
2013-02-20 18:08:00,40.8,30.7,29.77,NE,43,0.0,0.0,67,0.00,,---,0.00,VWS V14.01,2013-02-21 02:08:00,
2013-02-20 18:14:00,40.6,30.5,29.77,NE,43,0.0,0.0,67,0.00,,---,0.00,VWS V14.01,2013-02-21 02:14:00,
2013-02-20 18:20:00,40.6,30.9,29.77,NE,43,0.0,0.0,68,0.00,,---,0.00,VWS V14.01,2013-02-21 02:20:00,
2013-02-20 18:26:00,40.5,30.8,29.77,NE,44,0.0,0.0,68,0.00,,---,0.00,VWS V14.01,2013-02-21 02:26:00,
2013-02-20 18:32:00,40.5,31.1,29.77,NE,43,0.0,0.0,69,0.00,,---,0.00,VWS V14.01,2013-02-21 02:32:00,
2013-02-20 18:38:00,40.3,30.9,29.77,NE,43,0.0,0.0,69,0.00,,---,0.00,VWS V14.01,2013-02-21 02:38:00,
2013-02-20 18:44:00,40.1,30.8,29.77,NE,44,0.0,0.0,69,0.00,,---,0.00,VWS V14.01,2013-02-21 02:44:00,
2013-02-20 18:50:00,40.1,30.8,29.77,NE,44,0.0,0.0,69,0.00,,---,0.00,VWS V14.01,2013-02-21 02:50:00,
2013-02-20 18:56:00,39.9,30.6,29.77,NE,44,0.0,0.0,69,0.04,,---,0.04,VWS V14.01,2013-02-21 02:56:00,
2013-02-20 19:02:00,39.7,30.4,29.77,NE,44,0.0,0.0,69,0.04,,---,0.04,VWS V14.01,2013-02-21 03:02:00,
2013-02-20 19:09:00,39.6,30.2,29.77,NE,44,0.0,0.0,69,0.04,,---,0.04,VWS V14.01,2013-02-21 03:09:00,
2013-02-20 19:14:00,39.4,30.1,29.77,NE,44,0.0,0.0,69,0.04,,---,0.04,VWS V14.01,2013-02-21 03:14:00,
2013-02-20 19:20:00,39.2,29.9,29.77,NE,44,0.0,0.0,69,0.04,,---,0.04,VWS V14.01,2013-02-21 03:20:00,
2013-02-20 19:26:00,39.0,29.7,29.77,NE,44,0.0,0.0,69,0.04,,---,0.04,VWS V14.01,2013-02-21 03:26:00,
2013-02-20 19:32:00,38.7,29.7,29.77,NE,44,0.0,0.0,70,0.04,,---,0.04,VWS V14.01,2013-02-21 03:32:00,
2013-02-20 19:38:00,38.7,29.7,29.77,NE,44,0.0,0.0,70,0.04,,---,0.04,VWS V14.01,2013-02-21 03:38:00,
2013-02-20 19:44:00,38.3,29.4,29.77,NE,44,0.0,0.0,70,0.04,,---,0.04,VWS V14.01,2013-02-21 03:44:00,
2013-02-20 19:50:00,38.1,29.2,29.74,NE,44,0.0,0.0,70,0.04,,---,0.04,VWS V14.01,2013-02-21 03:50:00,
2013-02-20 19:56:00,37.9,29.0,29.74,NE,44,0.0,0.0,70,0.04,,---,0.04,VWS V14.01,2013-02-21 03:56:00,
2013-02-20 20:04:00,37.8,28.9,29.74,NE,44,0.0,0.0,70,0.00,,---,0.04,VWS V14.01,2013-02-21 04:04:00,
2013-02-20 20:10:00,37.6,28.7,29.74,NE,44,0.0,0.0,70,0.00,,---,0.04,VWS V14.01,2013-02-21 04:10:00,
2013-02-20 20:16:00,37.4,28.5,29.74,NE,44,0.0,0.0,70,0.00,,---,0.04,VWS V14.01,2013-02-21 04:16:00,
2013-02-20 20:23:00,37.0,28.2,29.74,NE,44,0.0,0.0,70,0.00,,---,0.04,VWS V14.01,2013-02-21 04:23:00,
2013-02-20 20:28:00,36.7,27.8,29.74,NE,44,0.0,0.0,70,0.00,,---,0.04,VWS V14.01,2013-02-21 04:28:00,
2013-02-20 20:34:00,36.5,27.7,29.74,NE,44,0.0,0.0,70,0.00,,---,0.04,VWS V14.01,2013-02-21 04:34:00,
2013-02-20 20:41:00,36.5,27.7,29.77,NE,44,0.0,0.0,70,0.00,,---,0.04,VWS V14.01,2013-02-21 04:41:00,
2013-02-20 20:46:00,36.3,27.5,29.77,NE,44,0.0,0.0,70,0.00,,---,0.04,VWS V14.01,2013-02-21 04:46:00,
2013-02-20 20:52:00,36.1,27.3,29.77,NE,44,0.0,0.0,70,0.00,,---,0.04,VWS V14.01,2013-02-21 04:52:00,
2013-02-20 20:58:00,36.1,27.7,29.77,NE,44,0.0,0.0,71,0.00,,---,0.04,VWS V14.01,2013-02-21 04:58:00,
2013-02-20 21:00:00,36.1,27.7,29.77,NE,44,0.0,0.0,71,0.00,,---,0.04,VWS V14.01,2013-02-21 05:00:00,
2013-02-20 21:02:00,36.1,27.7,29.77,NE,44,0.0,0.0,71,0.00,,---,0.04,VWS V14.01,2013-02-21 05:02:00,
2013-02-20 21:06:00,36.1,27.7,29.77,NE,44,0.0,0.0,71,0.00,,---,0.04,VWS V14.01,2013-02-21 05:06:00,
2013-02-20 21:10:00,36.1,27.7,29.77,NE,44,0.0,0.0,71,0.00,,---,0.04,VWS V14.01,2013-02-21 05:10:00,
2013-02-20 21:16:00,36.1,27.7,29.77,NE,44,0.0,0.0,71,0.00,,---,0.04,VWS V14.01,2013-02-21 05:16:00,
2013-02-20 21:22:00,36.3,28.2,29.77,NE,44,0.0,0.0,72,0.00,,---,0.04,VWS V14.01,2013-02-21 05:22:00,
2013-02-20 21:28:00,36.3,28.2,29.77,NE,44,0.0,0.0,72,0.00,,---,0.04,VWS V14.01,2013-02-21 05:28:00,
2013-02-20 21:34:00,36.3,28.2,29.77,NE,44,0.0,0.0,72,0.00,,---,0.04,VWS V14.01,2013-02-21 05:34:00,
2013-02-20 21:40:00,36.3,28.5,29.77,NE,44,0.0,0.0,73,0.00,,---,0.04,VWS V14.01,2013-02-21 05:40:00,
2013-02-20 21:46:00,36.5,28.7,29.77,NE,44,0.0,0.0,73,0.00,,---,0.04,VWS V14.01,2013-02-21 05:46:00,
2013-02-20 21:52:00,36.5,28.7,29.77,NE,44,0.0,0.0,73,0.00,,---,0.04,VWS V14.01,2013-02-21 05:52:00,
2013-02-20 21:58:00,36.7,28.9,29.77,NE,44,0.0,0.0,73,0.00,,---,0.04,VWS V14.01,2013-02-21 05:58:00,
2013-02-20 22:04:00,36.7,28.9,29.77,NE,44,0.0,0.0,73,0.00,,---,0.04,VWS V14.01,2013-02-21 06:04:00,
2013-02-20 22:10:00,36.7,29.2,29.77,NE,44,0.0,0.0,74,0.00,,---,0.04,VWS V14.01,2013-02-21 06:10:00,
2013-02-20 22:16:00,36.7,29.2,29.77,NE,44,0.0,0.0,74,0.00,,---,0.04,VWS V14.01,2013-02-21 06:16:00,
2013-02-20 22:22:00,36.9,29.4,29.77,NE,44,0.0,0.0,74,0.00,,---,0.04,VWS V14.01,2013-02-21 06:22:00,
2013-02-20 22:28:00,36.9,29.4,29.77,NE,44,0.0,0.0,74,0.00,,---,0.04,VWS V14.01,2013-02-21 06:28:00,
2013-02-20 22:34:00,36.9,29.7,29.77,NE,44,0.0,0.0,75,0.00,,---,0.04,VWS V14.01,2013-02-21 06:34:00,
2013-02-20 22:40:00,36.9,29.7,29.77,NE,44,0.0,0.0,75,0.00,,---,0.04,VWS V14.01,2013-02-21 06:40:00,
2013-02-20 22:46:00,36.9,29.7,29.77,NE,44,0.0,0.0,75,0.00,,---,0.04,VWS V14.01,2013-02-21 06:46:00,
2013-02-20 22:52:00,36.9,29.7,29.77,NE,44,0.0,0.0,75,0.00,,---,0.04,VWS V14.01,2013-02-21 06:52:00,
2013-02-20 22:58:00,36.9,29.7,29.77,NE,44,0.0,0.0,75,0.00,,---,0.04,VWS V14.01,2013-02-21 06:58:00,
2013-02-20 23:04:00,36.9,29.7,29.77,NE,44,0.0,0.0,75,0.00,,---,0.04,VWS V14.01,2013-02-21 07:04:00,
2013-02-20 23:10:00,36.9,30.0,29.80,NE,44,0.0,0.0,76,0.00,,---,0.04,VWS V14.01,2013-02-21 07:10:00,
2013-02-20 23:16:00,36.9,30.0,29.80,NE,44,0.0,0.0,76,0.00,,---,0.04,VWS V14.01,2013-02-21 07:16:00,
2013-02-20 23:22:00,37.0,30.2,29.77,NE,44,0.0,0.0,76,0.00,,---,0.04,VWS V14.01,2013-02-21 07:22:00,
2013-02-20 23:28:00,37.0,30.2,29.77,NE,44,0.0,0.0,76,0.00,,---,0.04,VWS V14.01,2013-02-21 07:28:00,
2013-02-20 23:34:00,37.0,30.2,29.77,NE,44,0.0,0.0,76,0.00,,---,0.04,VWS V14.01,2013-02-21 07:34:00,
2013-02-20 23:40:00,37.0,30.2,29.77,NE,44,0.0,0.0,76,0.00,,---,0.04,VWS V14.01,2013-02-21 07:40:00,
2013-02-20 23:46:00,37.0,30.5,29.77,NE,44,0.0,0.0,77,0.00,,---,0.04,VWS V14.01,2013-02-21 07:46:00,
2013-02-20 23:52:00,37.0,30.5,29.77,NE,44,0.0,0.0,77,0.00,,---,0.04,VWS V14.01,2013-02-21 07:52:00,
2013-02-20 23:58:00,37.0,30.5,29.77,NE,44,0.0,0.0,77,0.00,,---,0.04,VWS V14.01,2013-02-21 07:58:00,